Terminal Aerodrome Forecast
Issued by NWS

Home | Current Version | Previous Version | Text Only | Print | Product List | Glossary On
Versions: 1 2 3 4 5 6 7 8 9 10 11 12 13 14 15 16 17 18 19 20
138
FTUS46 KEKA 242320
TAFUKI
TAF
KUKI 242320Z 2500/2524 VRB03KT P6SM FEW045
     FM250500 00000KT 1SM BR OVC005
     FM251500 VRB03KT P6SM OVC120=

USA.gov is the U.S. government's official web portal to all federal, state and local government web resources and services.